Time;durP1;ratioP1;P1;durP2;ratioP2;P2;SDS_P1;SDS_P2;PMS_P1;PMS_P2;Temp;Humidity;BMP_temperature;BMP_pressure;BME280_temperature;BME280_humidity;BME280_pressure;Samples;Min_cycle;Max_cycle;Signal;HPM_P1;HPM_P2
2021/09/21 00:02:11;;;;;;;8.75;5.37;;;16.80;75.80;;;;;;2228427;57;21071;-71
2021/09/21 00:04:41;;;;;;;7.65;5.10;;;16.80;75.90;;;;;;2234130;56;20992;-72
2021/09/21 00:07:07;;;;;;;8.05;5.50;;;16.80;75.90;;;;;;2477662;55;21063;-71
2021/09/21 00:09:34;;;;;;;8.35;5.75;;;16.90;76.10;;;;;;2255328;56;21043;-70
2021/09/21 00:12:00;;;;;;;7.85;5.37;;;16.90;76.00;;;;;;2231927;56;21087;-72
2021/09/21 00:14:27;;;;;;;8.60;5.72;;;16.90;75.80;;;;;;2226233;56;21009;-69
2021/09/21 00:16:53;;;;;;;7.97;5.55;;;16.90;75.70;;;;;;2379697;55;20987;-72
2021/09/21 00:19:20;;;;;;;8.50;5.47;;;16.90;75.60;;;;;;2243309;56;21005;-73
2021/09/21 00:21:46;;;;;;;9.07;5.95;;;16.90;75.70;;;;;;2347230;56;20978;-71
2021/09/21 00:24:12;;;;;;;10.60;7.07;;;16.90;75.80;;;;;;2228026;57;20968;-72
2021/09/21 00:26:38;;;;;;;9.13;5.85;;;16.90;75.90;;;;;;2234258;56;21051;-69
2021/09/21 00:29:07;;;;;;;9.27;6.32;;;16.90;76.00;;;;;;2253364;56;21006;-74
2021/09/21 00:31:40;;;;;;;7.28;5.18;;;16.90;76.10;;;;;;2250160;56;21014;-72
2021/09/21 00:34:10;;;;;;;8.55;5.68;;;17.00;76.20;;;;;;2234760;56;21047;-71
2021/09/21 00:36:37;;;;;;;8.73;6.00;;;17.00;76.10;;;;;;2242605;56;21501;-71
2021/09/21 00:39:04;;;;;;;9.30;5.32;;;17.00;75.90;;;;;;2251494;56;20939;-72
2021/09/21 00:41:31;;;;;;;7.32;5.12;;;17.00;75.80;;;;;;2245613;56;21042;-73
2021/09/21 00:43:58;;;;;;;7.28;5.47;;;17.00;75.80;;;;;;2253198;56;21015;-70
2021/09/21 00:46:24;;;;;;;9.80;6.82;;;17.00;75.70;;;;;;2243912;56;20959;-75
2021/09/21 00:48:50;;;;;;;8.68;5.80;;;17.00;75.70;;;;;;2242537;56;21054;-72
2021/09/21 00:51:16;;;;;;;9.25;6.50;;;17.00;75.80;;;;;;2237957;57;21063;-73
2021/09/21 00:53:43;;;;;;;12.05;6.85;;;17.10;76.00;;;;;;2230721;56;21248;-72
2021/09/21 00:56:09;;;;;;;8.98;6.43;;;17.10;76.10;;;;;;2244161;56;21862;-71
2021/09/21 00:58:35;;;;;;;11.57;7.10;;;17.10;76.10;;;;;;2243315;56;21521;-71
2021/09/21 01:01:04;;;;;;;13.85;8.30;;;17.10;76.00;;;;;;2230599;56;21002;-71
2021/09/21 01:03:33;;;;;;;10.32;7.05;;;17.10;75.90;;;;;;2237232;56;21007;-72
2021/09/21 01:06:00;;;;;;;10.55;6.60;;;17.10;75.90;;;;;;2254625;56;21374;-72
2021/09/21 01:08:27;;;;;;;9.60;5.95;;;17.10;75.90;;;;;;2235485;56;21460;-72
2021/09/21 01:10:54;;;;;;;9.70;6.37;;;17.10;75.90;;;;;;2232309;56;21004;-71
2021/09/21 01:13:23;;;;;;;9.25;6.47;;;17.10;75.80;;;;;;2234451;57;20980;-72
2021/09/21 01:15:49;;;;;;;10.10;6.97;;;17.10;75.70;;;;;;2233070;57;20976;-69
2021/09/21 01:18:17;;;;;;;8.13;5.80;;;17.10;75.60;;;;;;2234910;56;21491;-76
2021/09/21 01:20:43;;;;;;;10.45;7.22;;;17.10;75.50;;;;;;2230287;56;21055;-71
2021/09/21 01:23:09;;;;;;;10.65;7.28;;;17.10;75.50;;;;;;2229448;56;21739;-69
2021/09/21 01:25:35;;;;;;;9.98;6.45;;;17.10;75.40;;;;;;2236995;56;20984;-74
2021/09/21 01:28:02;;;;;;;8.93;5.87;;;17.10;75.40;;;;;;2253440;56;21087;-71
2021/09/21 01:30:28;;;;;;;9.93;6.57;;;17.10;75.60;;;;;;2234320;56;20988;-72
2021/09/21 01:32:57;;;;;;;9.52;6.15;;;17.10;75.70;;;;;;2230125;57;21536;-70
2021/09/21 01:35:23;;;;;;;8.95;6.10;;;17.10;75.80;;;;;;2239067;56;20975;-72
2021/09/21 01:37:51;;;;;;;10.90;6.20;;;17.10;75.90;;;;;;2255534;56;21243;-72
2021/09/21 01:40:17;;;;;;;11.20;7.00;;;17.10;75.80;;;;;;2228106;56;21188;-73
2021/09/21 01:42:45;;;;;;;10.18;6.15;;;17.10;75.80;;;;;;2231202;56;21557;-72
2021/09/21 01:45:11;;;;;;;9.57;5.80;;;17.10;75.90;;;;;;2229304;56;20952;-71
2021/09/21 01:47:37;;;;;;;10.68;6.40;;;17.20;76.00;;;;;;2252375;56;21872;-73
2021/09/21 01:50:45;;;;;;;10.23;7.20;;;17.20;76.10;;;;;;2273083;56;21982;-70
2021/09/21 01:59:09;;;;;;;10.82;6.00;;;17.20;76.00;;;;;;2257178;56;20978;-75
2021/09/21 02:01:36;;;;;;;9.00;6.15;;;17.30;75.90;;;;;;2397218;55;21606;-71
2021/09/21 02:04:07;;;;;;;7.60;4.95;;;17.20;76.60;;;;;;2271673;56;20987;-71
2021/09/21 02:06:35;;;;;;;9.38;6.60;;;17.20;76.00;;;;;;2240809;56;20971;-73
2021/09/21 02:09:02;;;;;;;9.32;6.57;;;17.20;76.10;;;;;;2331204;56;21448;-72
2021/09/21 02:11:28;;;;;;;10.38;6.87;;;17.20;76.10;;;;;;2242331;56;20973;-71
2021/09/21 02:13:57;;;;;;;9.57;6.40;;;17.20;76.10;;;;;;2236125;56;20999;-70
2021/09/21 02:16:24;;;;;;;9.00;6.20;;;17.20;76.10;;;;;;2472539;55;21011;-71
2021/09/21 02:18:52;;;;;;;10.93;7.12;;;17.20;76.00;;;;;;2252685;56;20996;-71
2021/09/21 02:21:18;;;;;;;9.68;6.70;;;17.30;76.00;;;;;;2261455;56;21863;-73
2021/09/21 02:23:47;;;;;;;10.13;7.15;;;17.20;75.80;;;;;;2256909;56;21031;-73
2021/09/21 02:26:16;;;;;;;10.73;6.62;;;17.30;75.90;;;;;;2334395;55;21068;-71
2021/09/21 02:28:42;;;;;;;10.68;6.87;;;17.30;76.00;;;;;;2344437;56;21017;-72
2021/09/21 02:31:09;;;;;;;10.90;7.43;;;17.30;76.00;;;;;;2258696;56;21048;-73
2021/09/21 02:33:35;;;;;;;9.30;6.70;;;17.30;76.00;;;;;;2230956;56;20995;-72
2021/09/21 02:36:02;;;;;;;10.65;6.78;;;17.30;76.00;;;;;;2229727;56;21008;-73
2021/09/21 02:38:28;;;;;;;10.20;6.90;;;17.30;75.90;;;;;;2227863;56;21515;-73
2021/09/21 02:40:54;;;;;;;9.63;6.90;;;17.30;75.80;;;;;;2234718;56;21623;-72
2021/09/21 02:43:21;;;;;;;9.80;6.62;;;17.30;75.80;;;;;;2229516;56;21462;-72
2021/09/21 02:45:47;;;;;;;8.32;6.20;;;17.30;75.70;;;;;;2228022;56;21035;-73
2021/09/21 02:48:13;;;;;;;11.88;7.00;;;17.20;75.50;;;;;;2227919;57;20953;-72
2021/09/21 02:50:39;;;;;;;9.68;6.57;;;17.30;75.50;;;;;;2324582;55;21028;-71
2021/09/21 02:53:06;;;;;;;10.07;7.28;;;17.30;75.30;;;;;;2237008;56;20975;-70
2021/09/21 02:55:32;;;;;;;11.32;6.00;;;17.20;75.00;;;;;;2237118;56;21036;-72
2021/09/21 02:57:58;;;;;;;9.50;6.28;;;17.20;74.90;;;;;;2249282;56;20979;-73
2021/09/21 03:00:27;;;;;;;10.15;6.75;;;17.20;74.70;;;;;;2238645;57;20994;-72
2021/09/21 03:02:55;;;;;;;10.27;7.05;;;17.20;74.70;;;;;;2235406;56;21064;-72
2021/09/21 03:05:25;;;;;;;7.35;5.30;;;17.10;74.70;;;;;;2244749;56;21054;-71
2021/09/21 03:07:59;;;;;;;8.85;6.45;;;17.10;74.90;;;;;;2246707;56;21954;-72
2021/09/21 03:11:15;;;;;;;12.23;7.50;;;17.10;75.00;;;;;;2226901;56;21147;-73
2021/09/21 03:19:11;;;;;;;8.82;5.85;;;17.00;74.80;;;;;;2225926;56;21038;-69
2021/09/21 03:21:37;;;;;;;10.10;6.75;;;17.00;74.70;;;;;;2247076;56;21003;-70
2021/09/21 03:24:04;;;;;;;8.30;5.70;;;17.00;74.90;;;;;;2257222;56;21050;-72
2021/09/21 03:26:33;;;;;;;8.43;6.12;;;16.90;75.00;;;;;;2233860;56;21002;-71
2021/09/21 03:28:59;;;;;;;8.63;5.47;;;17.00;75.20;;;;;;2253150;56;22027;-71
2021/09/21 03:31:28;;;;;;;8.90;6.10;;;17.00;75.20;;;;;;2242777;56;20978;-72
2021/09/21 03:33:55;;;;;;;7.78;5.50;;;17.00;75.10;;;;;;2227040;56;21059;-72
2021/09/21 03:36:21;;;;;;;8.15;5.72;;;17.00;75.20;;;;;;2243538;56;20971;-71
2021/09/21 03:38:48;;;;;;;8.60;6.10;;;16.90;75.00;;;;;;2376757;55;21085;-72
2021/09/21 03:41:14;;;;;;;8.40;5.97;;;16.90;75.00;;;;;;2245432;56;20951;-76
2021/09/21 03:43:40;;;;;;;9.43;6.18;;;17.00;75.10;;;;;;2254413;56;20975;-69
2021/09/21 03:46:06;;;;;;;9.18;6.07;;;16.90;75.00;;;;;;2445123;55;21512;-72
2021/09/21 03:48:33;;;;;;;9.65;6.55;;;16.90;74.90;;;;;;2230419;56;21650;-73
2021/09/21 03:51:00;;;;;;;8.50;6.35;;;16.90;74.70;;;;;;2243153;56;20959;-71
2021/09/21 03:53:27;;;;;;;10.05;6.15;;;16.90;74.60;;;;;;2230164;56;21095;-71
2021/09/21 03:55:54;;;;;;;9.45;6.50;;;16.90;74.50;;;;;;2366903;56;21051;-73
2021/09/21 03:58:20;;;;;;;9.73;6.95;;;16.80;74.40;;;;;;2239145;56;20947;-71
2021/09/21 04:00:46;;;;;;;10.57;6.85;;;16.80;74.40;;;;;;2233059;56;20999;-72
2021/09/21 04:03:13;;;;;;;8.85;6.15;;;16.80;74.30;;;;;;2228852;56;21079;-70
2021/09/21 04:05:41;;;;;;;11.20;7.75;;;16.80;75.00;;;;;;2234698;56;21011;-71
2021/09/21 04:08:07;;;;;;;12.40;7.10;;;16.70;74.30;;;;;;2217798;57;21079;-73
2021/09/21 04:10:35;;;;;;;11.00;7.00;;;16.70;74.40;;;;;;2247445;56;21524;-70
2021/09/21 04:13:02;;;;;;;11.70;8.23;;;16.70;74.60;;;;;;2241690;56;20979;-70
2021/09/21 04:15:29;;;;;;;10.05;6.65;;;16.70;74.80;;;;;;2231405;56;21231;-72
2021/09/21 04:17:55;;;;;;;12.35;7.75;;;16.70;75.00;;;;;;2229476;56;22044;-70
2021/09/21 04:20:21;;;;;;;12.15;7.85;;;16.70;75.20;;;;;;2234894;56;20935;-72
2021/09/21 04:22:48;;;;;;;11.73;7.50;;;16.70;75.20;;;;;;2255205;56;20998;-72
2021/09/21 04:25:15;;;;;;;11.12;7.37;;;16.70;75.30;;;;;;2232214;56;21015;-70
2021/09/21 04:27:41;;;;;;;12.52;7.82;;;16.70;75.30;;;;;;2248672;56;20972;-71
2021/09/21 04:30:09;;;;;;;10.73;7.12;;;16.70;75.30;;;;;;2393537;55;21059;-72
2021/09/21 04:32:37;;;;;;;8.90;6.10;;;16.70;75.20;;;;;;2226446;56;21023;-71
2021/09/21 04:35:05;;;;;;;9.38;6.22;;;16.70;75.20;;;;;;2248136;56;21299;-75
2021/09/21 04:37:31;;;;;;;8.85;5.37;;;16.70;75.10;;;;;;2223902;57;21095;-71
2021/09/21 04:39:58;;;;;;;8.80;6.45;;;16.70;75.20;;;;;;2238945;56;21132;-72
2021/09/21 04:42:25;;;;;;;8.27;6.43;;;16.80;75.20;;;;;;2236027;57;21087;-71
2021/09/21 04:44:53;;;;;;;9.13;6.57;;;16.70;75.10;;;;;;2261593;56;21034;-69
2021/09/21 04:47:19;;;;;;;8.80;6.25;;;16.70;75.10;;;;;;2255450;56;20975;-72
2021/09/21 04:49:45;;;;;;;8.95;6.65;;;16.70;75.10;;;;;;2238970;57;20996;-72
2021/09/21 04:52:13;;;;;;;8.75;6.90;;;16.70;75.00;;;;;;2240705;56;20988;-73
2021/09/21 04:54:39;;;;;;;10.18;5.53;;;16.70;75.00;;;;;;2234574;56;21052;-73
2021/09/21 04:57:05;;;;;;;7.47;5.80;;;16.70;75.10;;;;;;2228758;57;20965;-74
2021/09/21 04:59:31;;;;;;;9.43;6.50;;;16.70;75.00;;;;;;2252586;56;20954;-71
2021/09/21 05:01:58;;;;;;;9.73;6.78;;;16.70;75.00;;;;;;2236171;56;20999;-73
2021/09/21 05:04:24;;;;;;;10.45;7.62;;;16.80;75.00;;;;;;2276260;55;21963;-72
2021/09/21 05:06:50;;;;;;;10.13;6.68;;;16.70;74.90;;;;;;2315289;55;20994;-71
2021/09/21 05:09:17;;;;;;;9.88;6.47;;;16.70;74.90;;;;;;2323816;55;21871;-74
2021/09/21 05:11:46;;;;;;;11.73;7.20;;;16.70;74.90;;;;;;2228779;57;21781;-71
2021/09/21 05:14:12;;;;;;;11.80;7.87;;;16.70;74.90;;;;;;2251633;56;20987;-70
2021/09/21 05:16:39;;;;;;;10.60;6.30;;;16.70;74.90;;;;;;2264694;56;21043;-72
2021/09/21 05:19:07;;;;;;;10.55;7.15;;;16.70;74.90;;;;;;2227634;56;21025;-69
2021/09/21 05:21:34;;;;;;;10.60;7.30;;;16.60;74.70;;;;;;2241290;56;21281;-70
2021/09/21 05:24:02;;;;;;;9.43;6.30;;;16.60;74.60;;;;;;2248371;56;21027;-68
2021/09/21 05:26:28;;;;;;;12.50;6.87;;;16.60;74.60;;;;;;2228365;56;20961;-71
2021/09/21 05:28:54;;;;;;;8.73;6.50;;;16.60;74.60;;;;;;2437580;55;21066;-70
2021/09/21 05:31:21;;;;;;;10.27;6.78;;;16.60;74.50;;;;;;2234453;56;21067;-72
2021/09/21 05:33:47;;;;;;;10.27;6.70;;;16.60;74.60;;;;;;2232701;56;21035;-71
2021/09/21 05:36:13;;;;;;;10.10;6.90;;;16.60;74.60;;;;;;2229965;56;21107;-71
2021/09/21 05:38:40;;;;;;;9.95;6.70;;;16.60;74.70;;;;;;2306456;56;21051;-72
2021/09/21 05:41:06;;;;;;;9.65;6.47;;;16.50;74.40;;;;;;2279985;56;21484;-72
2021/09/21 05:43:32;;;;;;;8.00;5.87;;;16.50;74.20;;;;;;2239053;56;20971;-72
2021/09/21 05:45:58;;;;;;;7.95;5.87;;;16.50;74.00;;;;;;2226975;56;21023;-72
2021/09/21 05:48:27;;;;;;;7.95;5.82;;;16.50;73.90;;;;;;2250101;56;21061;-72
2021/09/21 05:50:54;;;;;;;7.25;5.55;;;16.40;73.80;;;;;;2235468;56;21011;-70
2021/09/21 05:53:20;;;;;;;7.87;5.82;;;16.40;73.70;;;;;;2225096;56;20996;-70
2021/09/21 05:55:46;;;;;;;10.25;6.00;;;16.40;73.70;;;;;;2232338;56;20995;-69
2021/09/21 05:58:13;;;;;;;7.47;5.45;;;16.30;73.60;;;;;;2438680;56;21015;-71
2021/09/21 06:00:39;;;;;;;8.63;5.80;;;16.30;73.50;;;;;;2232446;56;20966;-73
2021/09/21 06:03:05;;;;;;;9.43;6.07;;;16.30;73.60;;;;;;2256370;56;20996;-69
2021/09/21 06:05:32;;;;;;;11.50;6.18;;;16.20;73.80;;;;;;2236871;57;21039;-70
2021/09/21 06:07:58;;;;;;;8.35;6.22;;;16.20;74.00;;;;;;2230416;56;20906;-70
2021/09/21 06:10:24;;;;;;;10.05;5.60;;;16.20;74.00;;;;;;2235587;56;21027;-71
2021/09/21 06:12:52;;;;;;;8.10;5.57;;;16.20;74.10;;;;;;2366145;55;21071;-71
2021/09/21 06:15:19;;;;;;;8.57;6.37;;;16.20;74.20;;;;;;2227745;56;21068;-70
2021/09/21 06:17:46;;;;;;;7.72;5.78;;;16.10;74.30;;;;;;2230252;56;21003;-73
2021/09/21 06:20:12;;;;;;;7.47;5.85;;;16.10;74.40;;;;;;2291535;55;21016;-73
2021/09/21 06:22:39;;;;;;;7.70;5.82;;;16.20;74.50;;;;;;2237243;56;20951;-71
2021/09/21 06:25:07;;;;;;;8.55;5.22;;;16.20;74.40;;;;;;2233170;56;21011;-71
2021/09/21 06:27:34;;;;;;;11.38;5.53;;;16.20;74.40;;;;;;2241308;55;20978;-75
2021/09/21 06:30:04;;;;;;;7.65;5.53;;;16.20;74.50;;;;;;2363021;55;20986;-73
2021/09/21 06:32:30;;;;;;;7.57;5.95;;;16.20;74.50;;;;;;2242093;56;20939;-71
2021/09/21 06:34:57;;;;;;;7.20;5.30;;;16.20;74.60;;;;;;2241550;55;20942;-70
2021/09/21 06:37:23;;;;;;;7.57;5.22;;;16.20;74.60;;;;;;2241691;56;20960;-70
2021/09/21 06:39:50;;;;;;;8.85;5.75;;;16.20;74.70;;;;;;2468401;55;20982;-72
2021/09/21 06:42:16;;;;;;;8.48;5.90;;;16.20;74.80;;;;;;2468495;55;20963;-74
2021/09/21 06:44:42;;;;;;;7.10;5.47;;;16.20;74.80;;;;;;2468703;55;21015;-71
2021/09/21 06:47:09;;;;;;;7.22;5.35;;;16.30;74.90;;;;;;2234041;56;21027;-71
2021/09/21 06:49:35;;;;;;;7.40;5.50;;;16.30;74.90;;;;;;2242211;56;21334;-69
2021/09/21 06:52:01;;;;;;;8.02;5.87;;;16.30;74.90;;;;;;2242099;56;21035;-72
2021/09/21 06:54:28;;;;;;;8.43;6.03;;;16.30;74.90;;;;;;2240164;56;21003;-72
2021/09/21 06:56:54;;;;;;;7.87;5.95;;;16.30;74.90;;;;;;2236535;56;22124;-73
2021/09/21 06:59:21;;;;;;;8.35;6.12;;;16.40;74.90;;;;;;2243685;56;21057;-73
2021/09/21 07:01:54;;;;;;;8.85;6.90;;;16.40;74.80;;;;;;2232082;55;21001;-72
2021/09/21 07:04:20;;;;;;;8.65;6.18;;;16.40;74.40;;;;;;2213383;56;21522;-72
2021/09/21 07:06:46;;;;;;;8.43;5.93;;;16.40;74.70;;;;;;2237686;56;21003;-71
2021/09/21 07:09:13;;;;;;;8.32;5.93;;;16.40;74.70;;;;;;2235903;55;21085;-71
2021/09/21 07:11:39;;;;;;;8.77;6.07;;;16.40;74.80;;;;;;2229539;56;20986;-69
2021/09/21 07:14:05;;;;;;;10.60;6.70;;;16.50;75.00;;;;;;2371127;55;20982;-73
2021/09/21 07:16:31;;;;;;;10.73;7.00;;;16.50;74.90;;;;;;2290493;55;21098;-71
2021/09/21 07:18:58;;;;;;;8.80;6.30;;;16.40;74.50;;;;;;2219984;56;21014;-73
2021/09/21 07:21:24;;;;;;;8.43;6.10;;;16.50;74.50;;;;;;2222038;56;20981;-71
2021/09/21 07:23:51;;;;;;;8.55;5.87;;;16.50;74.30;;;;;;2230546;56;21006;-72
2021/09/21 07:26:17;;;;;;;8.13;5.95;;;16.50;74.10;;;;;;2242029;56;21110;-73
2021/09/21 07:28:43;;;;;;;7.78;5.43;;;16.40;73.90;;;;;;2230737;55;21416;-71
2021/09/21 07:31:10;;;;;;;9.68;6.10;;;16.40;74.00;;;;;;2236896;56;21073;-72
2021/09/21 07:33:36;;;;;;;8.80;5.75;;;16.40;74.20;;;;;;2238575;55;21247;-71
2021/09/21 07:36:03;;;;;;;9.43;5.97;;;16.40;74.10;;;;;;2235114;56;22060;-73
2021/09/21 07:38:29;;;;;;;8.82;6.40;;;16.40;74.00;;;;;;2233798;55;21025;-71
2021/09/21 07:40:55;;;;;;;8.93;6.22;;;16.40;73.90;;;;;;2232263;56;20999;-71
2021/09/21 07:43:22;;;;;;;9.45;6.75;;;16.40;74.00;;;;;;2234683;56;20979;-72
2021/09/21 07:45:49;;;;;;;9.85;6.75;;;16.40;74.20;;;;;;2240250;55;20995;-69
2021/09/21 07:48:20;;;;;;;9.32;6.15;;;16.40;74.30;;;;;;2383240;55;20955;-73
2021/09/21 07:50:49;;;;;;;9.52;6.50;;;16.50;74.60;;;;;;2241406;56;21466;-70
2021/09/21 07:53:16;;;;;;;10.15;6.87;;;16.50;74.70;;;;;;2245308;55;21475;-72
2021/09/21 07:55:42;;;;;;;11.40;6.70;;;16.50;74.90;;;;;;2226567;56;20955;-72
2021/09/21 07:58:08;;;;;;;10.35;6.97;;;16.50;74.90;;;;;;2280889;55;20955;-70
2021/09/21 08:00:34;;;;;;;10.90;7.43;;;16.60;75.00;;;;;;2422760;55;20940;-71
2021/09/21 08:03:01;;;;;;;12.30;7.45;;;16.60;75.10;;;;;;2238000;56;21019;-73
2021/09/21 08:05:27;;;;;;;14.02;7.22;;;16.60;75.10;;;;;;2300010;55;21030;-75
2021/09/21 08:07:53;;;;;;;12.18;6.80;;;16.60;75.10;;;;;;2255802;55;21692;-73
2021/09/21 08:10:20;;;;;;;10.15;7.03;;;16.70;75.10;;;;;;2238107;56;20974;-70
2021/09/21 08:12:46;;;;;;;11.00;7.00;;;16.70;75.20;;;;;;2465494;55;22140;-72
2021/09/21 08:15:13;;;;;;;11.95;8.18;;;16.70;75.40;;;;;;2234695;56;21019;-72
2021/09/21 08:17:39;;;;;;;12.65;7.35;;;16.80;75.60;;;;;;2332852;55;21141;-71
2021/09/21 08:20:06;;;;;;;13.93;8.30;;;16.80;75.60;;;;;;2243926;55;20970;-71
2021/09/21 08:22:33;;;;;;;11.93;7.37;;;16.80;75.50;;;;;;2230093;56;21097;-71
2021/09/21 08:25:00;;;;;;;11.02;7.05;;;16.90;75.50;;;;;;2242686;55;21065;-71
2021/09/21 08:27:26;;;;;;;12.05;7.50;;;16.90;75.40;;;;;;2361402;55;20938;-72
2021/09/21 08:29:53;;;;;;;14.18;7.87;;;17.00;75.60;;;;;;2231279;56;22251;-71
2021/09/21 08:32:19;;;;;;;12.23;7.80;;;17.00;75.50;;;;;;2244334;55;21421;-72
2021/09/21 08:34:46;;;;;;;13.70;8.02;;;17.00;75.40;;;;;;2231131;56;20974;-73
2021/09/21 08:37:12;;;;;;;11.77;7.43;;;17.10;75.50;;;;;;2236459;56;21494;-72
2021/09/21 08:39:38;;;;;;;12.30;7.35;;;17.10;75.40;;;;;;2241169;56;21508;-70
2021/09/21 08:42:05;;;;;;;13.65;7.68;;;17.10;75.40;;;;;;2243472;55;20990;-74
2021/09/21 08:44:31;;;;;;;15.63;8.20;;;17.20;75.60;;;;;;2242499;56;20999;-72
2021/09/21 08:46:57;;;;;;;13.57;8.38;;;17.20;75.40;;;;;;2357354;55;21047;-72
2021/09/21 08:49:23;;;;;;;12.15;7.50;;;17.20;75.30;;;;;;2232111;56;20971;-70
2021/09/21 08:51:50;;;;;;;11.65;7.35;;;17.30;75.50;;;;;;2329414;55;22058;-72
2021/09/21 08:54:16;;;;;;;10.80;6.75;;;17.30;75.50;;;;;;2463394;55;21407;-72
2021/09/21 08:56:43;;;;;;;12.20;8.13;;;17.40;75.50;;;;;;2236233;56;20982;-72
2021/09/21 08:59:11;;;;;;;11.48;7.00;;;17.40;75.40;;;;;;2242311;56;20990;-73
2021/09/21 09:01:45;;;;;;;10.40;7.53;;;17.40;75.40;;;;;;2285666;55;22126;-70
2021/09/21 09:04:12;;;;;;;11.55;7.07;;;17.50;75.50;;;;;;2241575;55;21055;-72
2021/09/21 09:06:50;;;;;;;12.43;7.03;;;17.50;75.80;;;;;;2236034;56;20955;-71
2021/09/21 09:09:19;;;;;;;12.52;7.22;;;17.60;75.40;;;;;;2235571;56;21387;-70
2021/09/21 09:11:59;;;;;;;11.12;7.10;;;17.60;75.90;;;;;;2241830;55;21034;-73
2021/09/21 09:14:31;;;;;;;10.13;6.60;;;17.70;75.60;;;;;;2306779;55;20974;-71
2021/09/21 09:16:58;;;;;;;12.73;7.03;;;17.80;75.80;;;;;;2255334;55;20959;-72
2021/09/21 09:19:44;;;;;;;10.35;7.22;;;17.80;76.30;;;;;;2374640;55;21639;-71
2021/09/21 09:22:13;;;;;;;11.60;7.12;;;17.90;75.80;;;;;;2219511;56;21453;-75
2021/09/21 09:24:57;;;;;;;9.98;6.43;;;18.00;76.70;;;;;;2240151;56;20998;-74
2021/09/21 09:27:46;;;;;;;9.43;6.50;;;18.10;76.00;;;;;;2227983;57;20979;-72
2021/09/21 09:30:14;;;;;;;10.27;7.32;;;18.20;75.50;;;;;;2216084;56;21000;-72
2021/09/21 09:33:15;;;;;;;9.10;6.60;;;18.30;76.40;;;;;;2223312;56;20983;-72
2021/09/21 09:35:43;;;;;;;8.50;6.18;;;18.40;75.10;;;;;;2218940;56;20969;-71
2021/09/21 09:38:17;;;;;;;8.52;6.03;;;18.40;76.50;;;;;;2239332;56;20991;-73
2021/09/21 09:40:54;;;;;;;12.95;6.82;;;18.60;76.10;;;;;;2222663;56;21027;-74
2021/09/21 09:43:29;;;;;;;9.80;6.40;;;18.60;76.40;;;;;;2243140;56;22459;-73
2021/09/21 09:45:56;;;;;;;8.52;6.07;;;18.70;75.90;;;;;;2236798;56;20954;-72
2021/09/21 09:48:23;;;;;;;9.57;6.32;;;18.80;76.90;;;;;;2319709;55;20975;-72
2021/09/21 09:50:52;;;;;;;9.68;6.85;;;18.80;77.50;;;;;;2257056;55;20970;-73
2021/09/21 09:53:19;;;;;;;8.48;6.10;;;18.90;76.50;;;;;;2415051;55;20975;-71
2021/09/21 09:55:50;;;;;;;8.15;5.95;;;19.00;76.70;;;;;;2238708;56;21001;-75
2021/09/21 09:58:17;;;;;;;8.25;5.97;;;19.10;76.80;;;;;;2242594;55;20964;-74
2021/09/21 10:00:43;;;;;;;8.00;6.12;;;19.20;77.50;;;;;;2243285;56;21334;-74
2021/09/21 10:03:09;;;;;;;9.10;6.82;;;19.30;77.80;;;;;;2245991;55;21897;-74
2021/09/21 10:05:37;;;;;;;10.38;6.12;;;19.40;77.70;;;;;;2242122;56;20958;-72
2021/09/21 10:08:04;;;;;;;8.70;6.97;;;19.60;77.70;;;;;;2437736;55;22165;-73
2021/09/21 10:10:31;;;;;;;8.52;6.62;;;19.60;76.60;;;;;;2236083;56;20958;-71
2021/09/21 10:13:01;;;;;;;8.20;6.43;;;19.70;76.10;;;;;;2244350;55;21951;-72
2021/09/21 10:15:28;;;;;;;11.50;8.60;;;19.70;75.40;;;;;;2288344;55;21121;-72
2021/09/21 10:17:56;;;;;;;11.30;7.85;;;19.80;75.50;;;;;;2242220;55;20951;-71
2021/09/21 10:20:45;;;;;;;8.85;6.75;;;19.80;75.60;;;;;;2238099;56;21039;-72
2021/09/21 10:23:11;;;;;;;10.23;6.47;;;19.90;74.60;;;;;;2251378;56;21110;-72
2021/09/21 10:25:42;;;;;;;8.63;6.60;;;19.90;76.30;;;;;;2237057;56;20983;-71
2021/09/21 10:28:19;;;;;;;8.68;6.57;;;20.00;76.10;;;;;;2262973;55;20963;-71
2021/09/21 10:30:58;;;;;;;9.35;6.53;;;20.10;76.20;;;;;;2256985;55;21058;-72
2021/09/21 10:33:28;;;;;;;9.98;6.12;;;20.20;75.60;;;;;;2240301;56;21644;-70
2021/09/21 10:35:55;;;;;;;8.85;6.62;;;20.30;76.10;;;;;;2235313;56;20965;-70
2021/09/21 10:38:21;;;;;;;8.30;6.30;;;20.30;76.40;;;;;;2250368;55;21402;-70
2021/09/21 10:40:52;;;;;;;8.98;6.65;;;20.40;76.60;;;;;;2237893;56;22123;-73
2021/09/21 10:43:32;;;;;;;8.85;6.80;;;20.50;76.40;;;;;;2239704;56;20955;-71
2021/09/21 10:46:08;;;;;;;10.20;6.93;;;20.50;75.80;;;;;;2251202;55;21007;-73
2021/09/21 10:48:40;;;;;;;10.02;7.10;;;20.60;75.50;;;;;;2220586;56;21660;-74
2021/09/21 10:51:07;;;;;;;9.27;7.53;;;20.60;75.50;;;;;;2223201;56;21039;-72
2021/09/21 10:53:33;;;;;;;9.20;7.00;;;20.70;75.20;;;;;;2218771;56;20952;-71
2021/09/21 10:56:08;;;;;;;13.00;10.97;;;20.60;74.80;;;;;;2191848;56;1383005;-73
2021/09/21 10:58:35;;;;;;;11.48;8.52;;;20.60;72.90;;;;;;2230140;56;20987;-75
2021/09/21 11:01:01;;;;;;;9.95;7.62;;;20.60;74.20;;;;;;2256455;55;21450;-75
2021/09/21 11:03:29;;;;;;;9.32;6.75;;;20.60;74.60;;;;;;2245447;56;21456;-70
2021/09/21 11:05:56;;;;;;;10.07;7.07;;;20.70;74.60;;;;;;2472214;55;21031;-72
2021/09/21 11:08:30;;;;;;;9.32;6.32;;;20.70;74.50;;;;;;2245737;56;22188;-70
2021/09/21 11:10:59;;;;;;;9.07;6.47;;;20.70;74.20;;;;;;2310874;55;20959;-74
2021/09/21 11:13:32;;;;;;;8.32;6.53;;;20.80;75.30;;;;;;2241547;56;21115;-71
2021/09/21 11:16:00;;;;;;;7.93;6.25;;;20.80;75.40;;;;;;2235930;56;21777;-72
2021/09/21 11:18:26;;;;;;;8.10;6.40;;;20.80;75.40;;;;;;2444967;55;21095;-71
2021/09/21 11:21:01;;;;;;;9.43;6.65;;;20.90;75.60;;;;;;2238425;56;21468;-72
2021/09/21 11:23:29;;;;;;;10.80;7.22;;;20.90;75.40;;;;;;2245515;55;20998;-71
2021/09/21 11:26:02;;;;;;;7.90;5.70;;;21.00;75.90;;;;;;2248619;56;20946;-73
2021/09/21 11:28:32;;;;;;;10.00;7.43;;;21.10;75.80;;;;;;2236838;56;21001;-72
2021/09/21 11:30:59;;;;;;;9.30;6.65;;;21.20;76.20;;;;;;2263925;56;21166;-70
2021/09/21 11:33:30;;;;;;;9.75;6.70;;;21.20;75.70;;;;;;2459661;55;21466;-71
2021/09/21 11:35:58;;;;;;;9.63;7.03;;;21.30;75.30;;;;;;2344836;55;20994;-76
2021/09/21 11:38:27;;;;;;;8.57;6.70;;;21.30;74.70;;;;;;2244706;56;21407;-74
2021/09/21 11:40:53;;;;;;;10.40;7.22;;;21.30;74.80;;;;;;2236175;56;21030;-72
2021/09/21 11:43:19;;;;;;;10.82;7.28;;;21.40;75.10;;;;;;2215435;57;20995;-76
2021/09/21 11:45:46;;;;;;;11.88;7.90;;;21.40;75.10;;;;;;2462733;55;20947;-71
2021/09/21 11:48:13;;;;;;;9.43;7.10;;;21.40;74.60;;;;;;2346559;55;20970;-71
2021/09/21 11:50:40;;;;;;;8.75;7.15;;;21.50;74.30;;;;;;2238713;56;20966;-72
2021/09/21 11:53:08;;;;;;;9.68;7.72;;;21.50;74.00;;;;;;2424765;55;21062;-76
2021/09/21 11:55:57;;;;;;;10.50;7.45;;;21.50;73.90;;;;;;2242310;56;21006;-69
2021/09/21 11:58:31;;;;;;;8.85;6.60;;;21.50;73.00;;;;;;2462722;55;21099;-74
2021/09/21 12:00:59;;;;;;;8.68;6.40;;;21.50;74.20;;;;;;2360305;55;20939;-74
2021/09/21 12:03:28;;;;;;;7.53;5.97;;;21.60;74.10;;;;;;2316609;55;21119;-71
2021/09/21 12:05:56;;;;;;;7.78;5.53;;;21.60;74.00;;;;;;2223364;56;21595;-72
2021/09/21 12:08:24;;;;;;;5.53;4.45;;;21.60;73.50;;;;;;2241156;56;21047;-73
2021/09/21 12:10:55;;;;;;;6.07;5.10;;;21.60;73.30;;;;;;2239518;56;20946;-75
2021/09/21 12:13:23;;;;;;;5.97;4.72;;;21.70;73.00;;;;;;2245306;55;20967;-72
2021/09/21 12:15:54;;;;;;;8.02;5.28;;;21.70;72.90;;;;;;2245457;56;22107;-73
2021/09/21 12:18:21;;;;;;;6.20;5.00;;;21.70;72.20;;;;;;2237205;55;21040;-71
2021/09/21 12:20:58;;;;;;;6.28;4.87;;;21.70;72.80;;;;;;2241648;56;20963;-71
2021/09/21 12:23:28;;;;;;;5.68;4.68;;;21.80;71.40;;;;;;2219614;56;20974;-72
2021/09/21 12:25:55;;;;;;;6.50;5.10;;;21.80;71.90;;;;;;2243692;56;20979;-72
2021/09/21 12:28:32;;;;;;;6.22;4.80;;;21.80;72.40;;;;;;2244452;55;21021;-74
2021/09/21 12:31:07;;;;;;;6.75;4.85;;;21.80;72.10;;;;;;2217608;56;20995;-75
2021/09/21 12:33:36;;;;;;;6.15;4.62;;;21.90;71.00;;;;;;2206399;56;20986;-70
2021/09/21 12:36:03;;;;;;;6.72;4.95;;;21.90;71.30;;;;;;2250445;57;20959;-72
2021/09/21 12:38:29;;;;;;;7.00;4.70;;;22.00;71.80;;;;;;2218591;56;21037;-72
2021/09/21 12:41:05;;;;;;;6.50;5.00;;;22.00;71.50;;;;;;2202901;56;21122;-72
2021/09/21 12:43:32;;;;;;;5.85;4.80;;;22.00;70.20;;;;;;2368928;56;21018;-71
2021/09/21 12:46:02;;;;;;;5.47;4.43;;;22.00;71.30;;;;;;2219334;56;21537;-73
2021/09/21 12:48:30;;;;;;;6.00;4.53;;;22.10;71.10;;;;;;2238361;55;21086;-75
2021/09/21 12:51:00;;;;;;;5.75;4.47;;;22.10;71.10;;;;;;2294430;55;20932;-73
2021/09/21 12:53:27;;;;;;;5.70;4.68;;;22.10;71.20;;;;;;2252829;55;20988;-72
2021/09/21 12:56:01;;;;;;;4.97;4.18;;;22.10;71.30;;;;;;2237266;56;20915;-73
2021/09/21 12:58:38;;;;;;;5.97;4.72;;;22.10;70.30;;;;;;2237747;56;21411;-71
2021/09/21 13:01:06;;;;;;;5.10;3.87;;;22.20;71.50;;;;;;2239902;55;21311;-75